Time;durP1;ratioP1;P1;durP2;ratioP2;P2;SDS_P1;SDS_P2;PMS_P1;PMS_P2;Temp;Humidity;BMP_temperature;BMP_pressure;BME280_temperature;BME280_humidity;BME280_pressure;Samples;Min_cycle;Max_cycle;Signal;HPM_P1;HPM_P2
2022/10/14 00:01:25;;;;;;;;;;;;;;;13.11;77.95;101174.44;5007445;28;20311;-74
2022/10/14 00:03:52;;;;;;;;;;;;;;;13.07;78.16;101172.84;5002324;28;19924;-74
2022/10/14 00:06:20;;;;;;;;;;;;;;;13.13;78.01;101177.91;5007410;28;21333;-74
2022/10/14 00:08:48;;;;;;;;;;;;;;;13.11;77.77;101176.19;5009746;28;21134;-74
2022/10/14 00:11:16;;;;;;;;;;;;;;;13.13;77.99;101174.44;5012534;28;19932;-74
2022/10/14 00:13:41;;;;;;;;;;;;;;;13.14;77.94;101170.91;5010883;28;19983;-74
2022/10/14 00:16:13;;;;;;;;;;;;;;;13.10;78.22;101167.53;5016334;28;20378;-74
2022/10/14 00:18:38;;;;;;;;;;;;;;;13.12;78.29;101162.28;5015262;28;20008;-74
2022/10/14 00:21:03;;;;;;;;;;;;;;;13.18;78.24;101162.13;4993951;28;20541;-74
2022/10/14 00:23:29;;;;;;;;;;;;;;;13.14;78.01;101160.47;5010145;28;19921;-74
2022/10/14 00:25:54;;;;;;;;;;;;;;;13.16;77.82;101159.56;5011966;28;19968;-74
2022/10/14 00:28:19;;;;;;;;;;;;;;;13.14;78.00;101163.06;5012734;28;19926;-74
2022/10/14 00:30:58;;;;;;;;;;;;;;;13.17;77.95;101163.88;5011236;28;20054;-74
2022/10/14 00:33:24;;;;;;;;;;;;;;;13.15;78.22;101162.19;5007391;28;19926;-74
2022/10/14 00:35:56;;;;;;;;;;;;;;;13.17;78.08;101161.25;5008052;28;19928;-74
2022/10/14 00:38:21;;;;;;;;;;;;;;;13.15;78.07;101156.97;5011933;28;19931;-74
2022/10/14 00:40:47;;;;;;;;;;;;;;;13.14;78.00;101158.72;5015547;28;19925;-74
2022/10/14 00:43:13;;;;;;;;;;;;;;;13.10;78.39;101161.47;5012288;28;19921;-74
2022/10/14 00:45:38;;;;;;;;;;;;;;;13.12;78.48;101157.06;4994667;28;19918;-74
2022/10/14 00:48:03;;;;;;;;;;;;;;;13.11;78.50;101156.19;5014824;28;20072;-74
2022/10/14 00:50:29;;;;;;;;;;;;;;;13.12;78.46;101157.06;5011428;28;20268;-74
2022/10/14 00:52:55;;;;;;;;;;;;;;;13.11;78.98;101163.16;5010811;28;19983;-74
2022/10/14 00:58:23;;;;;;;;;;;;;;;13.18;78.45;101167.34;5011127;28;20406;-77
2022/10/14 01:00:48;;;;;;;;;;;;;;;13.14;78.54;101155.25;5009593;28;19948;-77
2022/10/14 01:03:18;;;;;;;;;;;;;;;13.18;78.26;101149.06;5008189;28;20346;-77
2022/10/14 01:06:01;;;;;;;;;;;;;;;13.17;78.18;101153.44;5008870;28;19932;-77
2022/10/14 01:08:32;;;;;;;;;;;;;;;13.14;78.49;101142.22;5008967;28;19926;-77
2022/10/14 01:11:00;;;;;;;;;;;;;;;13.10;78.92;101157.09;5013075;28;19925;-77
2022/10/14 01:13:33;;;;;;;;;;;;;;;13.09;78.91;101155.38;5009478;28;20020;-77
2022/10/14 01:15:59;;;;;;;;;;;;;;;13.11;78.88;101152.72;5011372;28;20298;-77
2022/10/14 01:18:43;;;;;;;;;;;;;;;13.09;78.71;101150.16;5012238;28;19928;-77
2022/10/14 01:21:14;;;;;;;;;;;;;;;13.13;78.70;101146.59;5008304;28;19928;-77
2022/10/14 01:23:48;;;;;;;;;;;;;;;13.12;78.74;101141.41;5007997;28;19929;-77
2022/10/14 01:26:32;;;;;;;;;;;;;;;13.09;78.86;101133.66;5009175;28;19929;-77
2022/10/14 01:29:11;;;;;;;;;;;;;;;13.11;78.85;101137.94;5008045;28;19932;-77
2022/10/14 01:31:39;;;;;;;;;;;;;;;13.11;78.72;101127.50;5008873;28;19925;-76
2022/10/14 01:34:08;;;;;;;;;;;;;;;13.16;78.64;101130.00;5010429;28;20036;-76
2022/10/14 01:36:41;;;;;;;;;;;;;;;13.11;78.50;101122.28;5010102;28;19953;-77
2022/10/14 01:39:13;;;;;;;;;;;;;;;13.15;78.45;101118.72;5007800;28;19926;-77
2022/10/14 01:41:42;;;;;;;;;;;;;;;13.13;78.43;101111.81;5010431;28;19928;-76
2022/10/14 01:44:09;;;;;;;;;;;;;;;13.12;78.83;101105.75;5009168;28;19975;-77
2022/10/14 01:46:36;;;;;;;;;;;;;;;13.10;78.77;101107.56;5014283;28;20001;-77
2022/10/14 01:49:04;;;;;;;;;;;;;;;13.13;78.66;101098.78;5013021;28;19979;-76
2022/10/14 01:51:33;;;;;;;;;;;;;;;13.14;78.36;101090.91;5010160;28;19928;-77
2022/10/14 01:54:05;;;;;;;;;;;;;;;13.12;78.72;101086.63;5008668;28;20436;-77
2022/10/14 01:56:31;;;;;;;;;;;;;;;13.13;78.48;101080.53;5009568;28;19922;-77
2022/10/14 01:58:58;;;;;;;;;;;;;;;13.10;78.65;101078.00;5008616;28;19932;-77
2022/10/14 02:01:23;;;;;;;;;;;;;;;13.11;78.77;101072.72;4995518;28;19927;-76
2022/10/14 02:03:49;;;;;;;;;;;;;;;13.11;78.56;101074.47;5011088;28;20303;-77
2022/10/14 02:06:17;;;;;;;;;;;;;;;13.09;78.54;101068.44;5009954;28;19922;-77
2022/10/14 02:08:57;;;;;;;;;;;;;;;13.11;78.46;101067.50;5009183;28;20108;-77
2022/10/14 02:11:23;;;;;;;;;;;;;;;13.10;78.69;101067.56;5007483;28;20275;-77
2022/10/14 02:13:54;;;;;;;;;;;;;;;13.10;78.89;101071.03;5012412;28;19943;-77
2022/10/14 02:16:27;;;;;;;;;;;;;;;13.11;78.66;101066.66;5012759;28;19917;-77
2022/10/14 02:18:57;;;;;;;;;;;;;;;13.09;78.61;101064.09;5013919;28;19918;-77
2022/10/14 02:21:28;;;;;;;;;;;;;;;13.06;78.87;101060.72;5012770;28;19926;-77
2022/10/14 02:24:00;;;;;;;;;;;;;;;13.05;79.16;101056.38;5009769;28;19925;-77
2022/10/14 02:26:26;;;;;;;;;;;;;;;13.10;78.75;101049.31;5005888;28;19933;-77
2022/10/14 02:28:52;;;;;;;;;;;;;;;13.16;78.44;101051.75;5008657;28;19929;-77
2022/10/14 02:31:18;;;;;;;;;;;;;;;13.15;78.38;101047.41;5009105;28;19930;-77
2022/10/14 02:33:46;;;;;;;;;;;;;;;13.12;78.47;101053.59;5009234;28;19925;-77
2022/10/14 02:36:14;;;;;;;;;;;;;;;13.11;78.41;101046.66;5006977;28;19928;-77
2022/10/14 02:38:40;;;;;;;;;;;;;;;13.08;78.79;101049.34;5009483;28;20404;-77
2022/10/14 02:41:09;;;;;;;;;;;;;;;13.11;78.72;101048.38;5011315;28;19925;-77
2022/10/14 02:43:34;;;;;;;;;;;;;;;13.13;78.42;101050.09;5011370;28;19921;-77
2022/10/14 02:46:01;;;;;;;;;;;;;;;13.14;78.29;101045.69;5008878;28;20387;-77
2022/10/14 02:48:26;;;;;;;;;;;;;;;13.12;78.27;101050.97;5009911;28;19929;-77
2022/10/14 02:50:51;;;;;;;;;;;;;;;13.16;78.09;101043.94;5007686;28;19926;-76
2022/10/14 02:53:17;;;;;;;;;;;;;;;13.12;78.54;101044.91;5007839;28;20354;-77
2022/10/14 02:55:42;;;;;;;;;;;;;;;13.13;78.74;101041.41;4990493;28;19921;-77
2022/10/14 02:58:07;;;;;;;;;;;;;;;13.12;78.71;101040.53;5008416;28;20417;-77
2022/10/14 03:00:33;;;;;;;;;;;;;;;13.16;78.56;101041.31;5008505;28;19926;-77
2022/10/14 03:02:58;;;;;;;;;;;;;;;13.08;78.99;101040.66;5008501;28;19928;-77
2022/10/14 03:05:23;;;;;;;;;;;;;;;13.12;78.98;101037.94;5005635;28;19929;-77
2022/10/14 03:07:49;;;;;;;;;;;;;;;13.10;78.89;101039.75;5007191;28;19928;-76
2022/10/14 03:10:14;;;;;;;;;;;;;;;13.10;79.30;101031.06;5010338;28;19918;-77
2022/10/14 03:12:39;;;;;;;;;;;;;;;13.14;78.78;101037.88;5008193;28;20010;-76
2022/10/14 03:15:06;;;;;;;;;;;;;;;13.10;79.28;101034.53;5008522;28;19929;-77
2022/10/14 03:17:31;;;;;;;;;;;;;;;13.09;78.94;101035.41;5009258;28;19921;-77
2022/10/14 03:19:58;;;;;;;;;;;;;;;13.14;78.61;101037.88;5007526;28;19963;-77
2022/10/14 03:22:23;;;;;;;;;;;;;;;13.15;78.74;101037.84;5010343;28;20276;-77
2022/10/14 03:24:48;;;;;;;;;;;;;;;13.17;77.93;101038.66;5010892;28;19970;-77
2022/10/14 03:27:13;;;;;;;;;;;;;;;13.20;77.79;101032.50;5004034;28;19928;-76
2022/10/14 03:29:39;;;;;;;;;;;;;;;13.20;78.19;101035.09;5008380;28;20287;-77
2022/10/14 03:32:04;;;;;;;;;;;;;;;13.22;78.05;101028.09;5011522;28;19925;-77
2022/10/14 03:34:29;;;;;;;;;;;;;;;13.18;77.78;101031.69;5008325;28;20068;-77
2022/10/14 03:36:55;;;;;;;;;;;;;;;13.18;78.12;101029.09;5010966;28;20495;-77
2022/10/14 03:39:20;;;;;;;;;;;;;;;13.18;78.18;101026.47;5006427;28;20015;-77
2022/10/14 03:41:46;;;;;;;;;;;;;;;13.20;77.69;101025.53;5009314;28;19932;-77
2022/10/14 03:44:12;;;;;;;;;;;;;;;13.18;77.72;101026.47;5009582;28;19995;-77
2022/10/14 03:46:37;;;;;;;;;;;;;;;13.21;77.54;101029.00;5006754;28;19924;-77
2022/10/14 03:49:02;;;;;;;;;;;;;;;13.18;77.87;101022.13;5015605;28;19968;-76
2022/10/14 03:51:27;;;;;;;;;;;;;;;13.16;77.38;101021.31;5008762;28;20839;-77
2022/10/14 03:53:53;;;;;;;;;;;;;;;13.18;77.46;101019.50;5012740;28;19968;-77
2022/10/14 03:56:18;;;;;;;;;;;;;;;13.20;77.45;101016.84;5011325;28;19921;-77
2022/10/14 03:58:43;;;;;;;;;;;;;;;13.23;77.38;101009.78;5010386;28;20306;-77
2022/10/14 04:01:08;;;;;;;;;;;;;;;13.25;77.45;101003.69;5012758;28;19918;-77
2022/10/14 04:03:34;;;;;;;;;;;;;;;13.26;77.12;100992.34;5008008;28;19968;-77
2022/10/14 04:05:59;;;;;;;;;;;;;;;13.24;77.00;101005.44;5000706;28;20346;-77
2022/10/14 04:08:24;;;;;;;;;;;;;;;13.23;77.15;101001.09;5010069;28;19922;-77
2022/10/14 04:10:51;;;;;;;;;;;;;;;13.24;76.84;101005.44;5014677;28;19929;-77
2022/10/14 04:13:16;;;;;;;;;;;;;;;13.26;76.88;101006.22;5009348;28;19926;-77
2022/10/14 04:15:41;;;;;;;;;;;;;;;13.25;76.77;100998.47;5014246;28;19918;-77
2022/10/14 04:18:06;;;;;;;;;;;;;;;13.32;76.55;100994.75;5009792;28;19964;-77
2022/10/14 04:20:32;;;;;;;;;;;;;;;13.31;76.52;100995.69;5011162;28;19922;-77
2022/10/14 04:23:00;;;;;;;;;;;;;;;13.34;76.32;100999.06;5009963;28;19932;-77
2022/10/14 04:25:26;;;;;;;;;;;;;;;13.31;76.37;100996.53;5011087;28;19957;-76
2022/10/14 04:27:51;;;;;;;;;;;;;;;13.25;76.58;100990.63;5011151;28;19956;-76
2022/10/14 04:30:16;;;;;;;;;;;;;;;13.27;76.65;100996.66;5011259;28;19922;-77
2022/10/14 04:32:41;;;;;;;;;;;;;;;13.25;76.96;100996.72;5011657;28;19925;-77
2022/10/14 04:35:08;;;;;;;;;;;;;;;13.19;76.91;101000.31;5011851;28;19924;-77
2022/10/14 04:37:33;;;;;;;;;;;;;;;13.18;77.15;100992.56;5011933;28;19922;-76
2022/10/14 04:39:59;;;;;;;;;;;;;;;13.20;77.21;100995.97;5012507;28;19922;-77
2022/10/14 04:42:24;;;;;;;;;;;;;;;13.19;77.46;100999.50;5013310;28;19929;-77
2022/10/14 04:44:49;;;;;;;;;;;;;;;13.17;77.64;100996.06;5018175;28;19944;-77
2022/10/14 04:47:14;;;;;;;;;;;;;;;13.22;77.30;100991.59;5008781;28;19918;-77
2022/10/14 04:49:40;;;;;;;;;;;;;;;13.20;77.55;100995.97;5012081;28;19924;-77
2022/10/14 04:52:05;;;;;;;;;;;;;;;13.16;77.65;100981.31;5009873;28;20018;-77
2022/10/14 04:54:30;;;;;;;;;;;;;;;13.20;77.76;100988.16;5008995;28;19925;-77
2022/10/14 04:56:55;;;;;;;;;;;;;;;13.15;77.72;100988.28;5010229;28;19929;-75
2022/10/14 04:59:21;;;;;;;;;;;;;;;13.16;77.85;100981.31;5009306;28;19928;-77
2022/10/14 05:01:46;;;;;;;;;;;;;;;13.11;78.18;100984.03;5009444;28;19922;-77
2022/10/14 05:04:11;;;;;;;;;;;;;;;13.11;78.05;100981.44;5007611;28;20112;-77
2022/10/14 05:06:37;;;;;;;;;;;;;;;13.10;77.66;100979.75;5010073;28;19923;-77
2022/10/14 05:09:03;;;;;;;;;;;;;;;13.05;78.03;100979.00;5007736;28;19926;-77
2022/10/14 05:11:29;;;;;;;;;;;;;;;13.03;78.14;100983.41;5011965;28;19941;-77
2022/10/14 05:13:54;;;;;;;;;;;;;;;13.12;77.89;100982.31;4997787;28;20529;-77
2022/10/14 05:16:19;;;;;;;;;;;;;;;13.11;77.95;100976.22;5014553;28;19929;-77
2022/10/14 05:18:44;;;;;;;;;;;;;;;13.09;77.90;100966.72;5009472;28;20456;-74
2022/10/14 05:21:10;;;;;;;;;;;;;;;13.15;77.90;100961.34;5010553;28;20019;-74
2022/10/14 05:23:35;;;;;;;;;;;;;;;13.10;78.12;100965.84;5010804;28;19929;-74
2022/10/14 05:26:00;;;;;;;;;;;;;;;13.10;78.30;100965.84;5010349;28;19925;-74
2022/10/14 05:28:26;;;;;;;;;;;;;;;13.11;78.01;100963.19;4995508;28;19921;-74
2022/10/14 05:30:51;;;;;;;;;;;;;;;13.09;77.72;100956.31;5008332;28;19933;-74
2022/10/14 05:33:16;;;;;;;;;;;;;;;13.12;78.18;100957.06;4991378;28;19929;-74
2022/10/14 05:35:42;;;;;;;;;;;;;;;13.13;78.50;100955.31;5010455;28;20454;-75
2022/10/14 05:38:07;;;;;;;;;;;;;;;13.15;77.84;100951.78;4993442;28;19951;-74
2022/10/14 05:40:32;;;;;;;;;;;;;;;13.13;78.00;100945.75;5009115;28;19952;-74
2022/10/14 05:42:58;;;;;;;;;;;;;;;13.18;78.18;100945.59;4996186;28;19922;-74
2022/10/14 05:45:24;;;;;;;;;;;;;;;13.10;78.87;100937.16;4995565;28;19932;-74
2022/10/14 05:47:50;;;;;;;;;;;;;;;13.16;78.59;100940.44;5013266;28;19932;-74
2022/10/14 05:50:15;;;;;;;;;;;;;;;13.18;78.63;100946.47;5007563;28;19929;-74
2022/10/14 05:52:40;;;;;;;;;;;;;;;13.12;78.50;100954.47;5007987;28;20302;-74
2022/10/14 05:55:07;;;;;;;;;;;;;;;13.14;78.65;100954.41;5010379;28;19924;-74
2022/10/14 05:57:32;;;;;;;;;;;;;;;13.18;78.74;100943.00;5011800;28;20016;-74
2022/10/14 05:59:58;;;;;;;;;;;;;;;13.14;78.93;100957.03;4982575;28;20020;-74
2022/10/14 06:02:23;;;;;;;;;;;;;;;13.04;78.99;100950.38;5007097;28;19975;-74
2022/10/14 06:04:48;;;;;;;;;;;;;;;13.10;78.76;100951.06;5009797;28;19925;-74
2022/10/14 06:07:14;;;;;;;;;;;;;;;13.17;78.32;100949.97;5004964;28;20028;-74
2022/10/14 06:09:39;;;;;;;;;;;;;;;13.15;78.44;100948.31;5007987;28;19921;-74
2022/10/14 06:12:05;;;;;;;;;;;;;;;13.23;78.35;100955.00;5004645;28;19933;-74
2022/10/14 06:14:30;;;;;;;;;;;;;;;13.19;78.24;100945.53;5009208;28;20726;-74
2022/10/14 06:16:55;;;;;;;;;;;;;;;13.21;78.30;100951.59;5014503;28;19925;-74
2022/10/14 06:19:21;;;;;;;;;;;;;;;13.16;78.28;100943.06;5008334;28;20437;-74
2022/10/14 06:21:46;;;;;;;;;;;;;;;13.22;77.97;100939.41;5004898;28;20386;-74
2022/10/14 06:24:12;;;;;;;;;;;;;;;13.25;78.31;100931.50;4988454;28;19930;-74
2022/10/14 06:26:37;;;;;;;;;;;;;;;13.32;77.84;100930.41;5008717;28;19984;-74
2022/10/14 06:29:02;;;;;;;;;;;;;;;13.31;78.28;100938.28;5009124;28;19921;-74
2022/10/14 06:31:28;;;;;;;;;;;;;;;13.27;78.19;100941.88;5007841;28;19932;-74
2022/10/14 06:33:53;;;;;;;;;;;;;;;13.22;78.43;100940.25;5009261;28;19948;-74
2022/10/14 06:36:18;;;;;;;;;;;;;;;13.26;78.15;100930.56;5003130;28;19922;-74
2022/10/14 06:38:44;;;;;;;;;;;;;;;13.21;78.17;100933.34;5007310;28;20067;-74
2022/10/14 06:41:09;;;;;;;;;;;;;;;13.30;77.81;100927.00;4992954;28;20016;-74
2022/10/14 06:43:37;;;;;;;;;;;;;;;13.30;78.48;100921.78;5009914;28;19921;-74
2022/10/14 06:46:03;;;;;;;;;;;;;;;13.34;78.91;100928.63;4992891;28;19940;-74
2022/10/14 06:48:28;;;;;;;;;;;;;;;13.29;79.70;100924.41;5017061;28;20370;-74
2022/10/14 06:50:53;;;;;;;;;;;;;;;13.30;80.26;100924.38;5007018;28;19921;-74
2022/10/14 06:53:19;;;;;;;;;;;;;;;13.22;80.84;100931.59;5006037;28;19925;-74
2022/10/14 06:55:45;;;;;;;;;;;;;;;13.20;81.08;100929.00;4992377;28;20432;-74
2022/10/14 06:58:10;;;;;;;;;;;;;;;13.20;80.86;100929.00;5018529;28;19924;-74
2022/10/14 07:00:36;;;;;;;;;;;;;;;13.24;81.27;100919.34;5008369;28;19946;-74
2022/10/14 07:03:01;;;;;;;;;;;;;;;13.27;80.92;100929.69;5007404;28;20263;-74
2022/10/14 07:05:26;;;;;;;;;;;;;;;13.20;81.12;100920.31;5006658;28;19944;-74
2022/10/14 07:07:52;;;;;;;;;;;;;;;13.22;81.05;100923.75;5007304;28;19926;-74
2022/10/14 07:10:17;;;;;;;;;;;;;;;13.25;81.47;100923.66;5013076;28;19921;-74
2022/10/14 07:12:42;;;;;;;;;;;;;;;13.28;81.41;100917.50;5009702;28;19928;-74
2022/10/14 07:15:10;;;;;;;;;;;;;;;13.25;81.47;100922.81;5010668;28;20015;-74
2022/10/14 07:17:36;;;;;;;;;;;;;;;13.22;81.66;100918.53;5012381;28;19975;-74
2022/10/14 07:20:02;;;;;;;;;;;;;;;13.26;81.27;100914.94;5011571;28;19922;-74
2022/10/14 07:22:27;;;;;;;;;;;;;;;13.26;81.45;100917.53;5008722;28;20386;-74
2022/10/14 07:24:52;;;;;;;;;;;;;;;13.25;81.96;100909.78;5008882;28;20338;-74
2022/10/14 07:27:19;;;;;;;;;;;;;;;13.23;82.10;100915.88;5008832;28;19921;-74
2022/10/14 07:29:44;;;;;;;;;;;;;;;13.28;81.87;100917.50;5008632;28;19945;-74
2022/10/14 07:32:09;;;;;;;;;;;;;;;13.28;81.71;100912.28;5008436;28;20441;-74
2022/10/14 07:34:35;;;;;;;;;;;;;;;13.28;81.77;100914.91;5011181;28;19949;-74
2022/10/14 07:37:00;;;;;;;;;;;;;;;13.30;81.90;100919.16;5007512;28;20968;-75
2022/10/14 07:39:26;;;;;;;;;;;;;;;13.26;82.34;100916.69;5008242;28;19967;-74
2022/10/14 07:41:51;;;;;;;;;;;;;;;13.33;81.98;100921.69;5016615;28;19925;-74
2022/10/14 07:44:17;;;;;;;;;;;;;;;13.34;81.80;100912.97;4995983;28;19922;-74
2022/10/14 07:46:43;;;;;;;;;;;;;;;13.34;82.11;100907.75;5012025;28;19925;-74
2022/10/14 07:49:17;;;;;;;;;;;;;;;13.34;82.13;100904.28;5013848;28;19922;-74
2022/10/14 07:51:43;;;;;;;;;;;;;;;13.33;82.50;100907.78;5006243;28;19921;-74
2022/10/14 07:54:11;;;;;;;;;;;;;;;13.37;82.16;100901.59;5008781;28;19921;-74
2022/10/14 07:56:37;;;;;;;;;;;;;;;13.39;82.06;100905.84;5009246;28;19936;-74
2022/10/14 07:59:02;;;;;;;;;;;;;;;13.40;82.19;100901.50;5007979;28;19917;-74
2022/10/14 08:01:28;;;;;;;;;;;;;;;13.46;81.76;100896.91;5008494;28;20048;-74
2022/10/14 08:03:53;;;;;;;;;;;;;;;13.49;81.93;100896.00;5008469;28;19914;-74
2022/10/14 08:06:18;;;;;;;;;;;;;;;13.54;81.77;100901.91;5005502;28;19924;-74
2022/10/14 08:08:44;;;;;;;;;;;;;;;13.51;82.00;100896.78;5010175;28;20011;-74
2022/10/14 08:11:11;;;;;;;;;;;;;;;13.45;81.96;100897.84;5009155;28;19980;-74
2022/10/14 08:13:36;;;;;;;;;;;;;;;13.56;81.32;100890.50;5012439;28;19922;-74
2022/10/14 08:16:02;;;;;;;;;;;;;;;13.56;81.94;100887.91;5011097;28;19933;-74
2022/10/14 08:18:27;;;;;;;;;;;;;;;13.58;82.04;100896.53;5013222;28;20326;-74
2022/10/14 08:20:56;;;;;;;;;;;;;;;13.58;82.36;100895.72;5009605;28;19921;-74
2022/10/14 08:23:21;;;;;;;;;;;;;;;13.55;82.68;100888.78;5006427;28;19928;-74
2022/10/14 08:25:48;;;;;;;;;;;;;;;13.59;82.45;100894.78;4979703;28;19925;-74
2022/10/14 08:28:13;;;;;;;;;;;;;;;13.55;82.31;100896.63;5007837;28;20016;-74
2022/10/14 08:30:41;;;;;;;;;;;;;;;13.65;81.41;100891.97;5008043;28;20020;-74
2022/10/14 08:33:07;;;;;;;;;;;;;;;13.71;81.42;100897.91;5011090;28;19934;-74
2022/10/14 08:35:35;;;;;;;;;;;;;;;13.69;81.78;100886.66;5010537;28;20279;-74
2022/10/14 08:38:03;;;;;;;;;;;;;;;13.69;81.72;100891.88;5011055;28;19926;-74
2022/10/14 08:40:30;;;;;;;;;;;;;;;13.72;81.64;100880.47;5011592;28;20405;-74
2022/10/14 08:43:16;;;;;;;;;;;;;;;13.71;82.00;100879.63;5011715;28;20033;-74
2022/10/14 08:45:44;;;;;;;;;;;;;;;13.71;82.14;100871.78;5012122;28;20004;-74
2022/10/14 08:48:14;;;;;;;;;;;;;;;13.73;82.07;100869.13;5012679;28;20502;-74
2022/10/14 08:50:45;;;;;;;;;;;;;;;13.76;82.26;100869.03;5012172;28;19913;-74
2022/10/14 08:53:20;;;;;;;;;;;;;;;13.73;82.70;100864.75;5010499;28;19926;-74
2022/10/14 08:55:51;;;;;;;;;;;;;;;13.74;83.02;100866.47;5011010;28;20404;-74
2022/10/14 08:58:27;;;;;;;;;;;;;;;13.75;82.66;100860.38;5008164;28;19927;-74
2022/10/14 09:00:53;;;;;;;;;;;;;;;13.81;82.79;100861.06;4997839;28;20416;-74
2022/10/14 09:03:23;;;;;;;;;;;;;;;13.86;82.79;100853.91;5012304;28;19953;-74
2022/10/14 09:06:00;;;;;;;;;;;;;;;13.86;82.70;100851.31;5010861;28;19918;-74
2022/10/14 09:08:32;;;;;;;;;;;;;;;13.81;82.60;100840.16;5010851;28;20009;-74
2022/10/14 09:10:58;;;;;;;;;;;;;;;13.86;82.31;100846.06;5009718;28;20011;-74
2022/10/14 09:13:30;;;;;;;;;;;;;;;13.89;81.33;100844.22;5010407;28;19953;-74
2022/10/14 09:16:08;;;;;;;;;;;;;;;13.90;81.12;100839.88;5012040;28;20864;-74
2022/10/14 09:19:00;;;;;;;;;;;;;;;13.94;80.50;100838.88;5011893;28;19965;-74
2022/10/14 09:21:25;;;;;;;;;;;;;;;13.95;80.56;100835.34;4990055;28;19929;-74
2022/10/14 09:23:55;;;;;;;;;;;;;;;13.99;77.98;100826.50;5008293;28;19918;-74
2022/10/14 09:26:20;;;;;;;;;;;;;;;14.00;75.34;100823.81;5008920;28;19926;-74
2022/10/14 09:28:47;;;;;;;;;;;;;;;14.06;77.62;100834.06;5010648;28;19921;-74
2022/10/14 09:31:13;;;;;;;;;;;;;;;14.00;80.68;100826.44;5010025;28;19929;-74
2022/10/14 09:33:40;;;;;;;;;;;;;;;14.11;78.33;100823.47;5011362;28;19928;-74
2022/10/14 09:36:10;;;;;;;;;;;;;;;14.09;79.80;100826.13;5010244;28;20399;-74
2022/10/14 09:38:36;;;;;;;;;;;;;;;14.04;80.32;100829.78;5012112;28;19917;-74
2022/10/14 09:41:01;;;;;;;;;;;;;;;14.10;79.27;100826.97;5006519;28;20408;-74
2022/10/14 09:43:28;;;;;;;;;;;;;;;14.08;79.04;100826.19;5010179;28;19927;-74
2022/10/14 09:46:06;;;;;;;;;;;;;;;14.05;77.20;100821.94;5009802;28;19929;-74
2022/10/14 09:48:48;;;;;;;;;;;;;;;14.11;79.37;100813.88;5009158;28;19949;-74
2022/10/14 09:51:33;;;;;;;;;;;;;;;14.06;79.98;100815.78;5012140;28;19972;-74
2022/10/14 09:54:00;;;;;;;;;;;;;;;14.06;80.41;100826.22;5006316;28;19926;-75
2022/10/14 09:56:30;;;;;;;;;;;;;;;14.06;80.09;100809.69;5006269;28;20066;-74
2022/10/14 09:58:56;;;;;;;;;;;;;;;14.10;79.68;100812.16;5008010;28;19925;-74
2022/10/14 10:01:23;;;;;;;;;;;;;;;14.16;79.20;100806.72;5007646;28;20008;-74
2022/10/14 10:03:49;;;;;;;;;;;;;;;14.11;80.03;100799.97;4997303;28;20369;-74
2022/10/14 10:06:18;;;;;;;;;;;;;;;14.16;80.42;100800.63;5009343;28;19931;-74
2022/10/14 10:08:52;;;;;;;;;;;;;;;14.14;80.39;100794.63;5010499;28;19918;-75
2022/10/14 10:11:37;;;;;;;;;;;;;;;14.15;79.97;100801.53;5010283;28;19921;-74
2022/10/14 10:14:17;;;;;;;;;;;;;;;14.20;78.91;100794.41;5012701;28;19921;-74
2022/10/14 10:16:43;;;;;;;;;;;;;;;14.18;79.72;100784.00;5006993;28;19917;-74
2022/10/14 10:19:20;;;;;;;;;;;;;;;14.18;79.85;100789.22;5010899;28;19922;-74
2022/10/14 10:21:46;;;;;;;;;;;;;;;14.17;78.12;100798.00;5010156;28;20465;-74
2022/10/14 10:24:20;;;;;;;;;;;;;;;14.19;79.71;100798.78;5017824;28;19927;-74
2022/10/14 10:26:46;;;;;;;;;;;;;;;14.18;80.62;100796.19;5008874;28;20071;-74
2022/10/14 10:29:22;;;;;;;;;;;;;;;14.18;79.62;100799.66;5006737;28;20060;-74
2022/10/14 10:31:50;;;;;;;;;;;;;;;14.13;81.21;100793.78;5008639;28;19925;-74
2022/10/14 10:34:15;;;;;;;;;;;;;;;14.06;81.67;100786.19;4990232;28;20410;-74
2022/10/14 10:36:52;;;;;;;;;;;;;;;14.10;81.50;100785.19;5009985;28;19922;-74
2022/10/14 10:39:34;;;;;;;;;;;;;;;14.09;82.07;100784.31;4994158;28;19921;-74
2022/10/14 10:42:02;;;;;;;;;;;;;;;14.14;82.20;100776.34;5009976;28;19942;-74
2022/10/14 10:44:39;;;;;;;;;;;;;;;14.13;82.11;100765.03;5012066;28;20333;-73
2022/10/14 10:47:07;;;;;;;;;;;;;;;14.19;80.42;100758.72;4998935;28;20024;-74
2022/10/14 10:49:42;;;;;;;;;;;;;;;14.17;81.29;100758.81;5009813;28;20015;-74
2022/10/14 10:52:31;;;;;;;;;;;;;;;14.11;82.48;100758.16;5008069;28;20286;-74
2022/10/14 10:55:01;;;;;;;;;;;;;;;14.09;82.93;100759.94;4987603;28;19925;-74
2022/10/14 10:57:38;;;;;;;;;;;;;;;14.06;82.45;100749.63;5007257;28;19928;-74
2022/10/14 11:00:23;;;;;;;;;;;;;;;14.13;82.85;100746.75;5015279;28;19996;-74
2022/10/14 11:02:53;;;;;;;;;;;;;;;14.12;83.40;100749.41;5006324;28;19924;-74
2022/10/14 11:05:31;;;;;;;;;;;;;;;14.25;80.75;100743.69;5005705;28;19928;-74
2022/10/14 11:14:08;;;;;;;;;;;;;;;14.18;83.15;100736.97;5010843;28;19975;-74
2022/10/14 11:16:43;;;;;;;;;;;;;;;14.21;79.13;100731.63;5011120;28;20375;-74
2022/10/14 11:19:14;;;;;;;;;;;;;;;14.18;82.90;100731.75;5010829;28;19953;-74
2022/10/14 11:21:49;;;;;;;;;;;;;;;14.21;82.71;100731.63;5005638;28;19963;-74
2022/10/14 11:24:26;;;;;;;;;;;;;;;14.19;83.28;100730.00;5007461;28;20402;-74
2022/10/14 11:26:52;;;;;;;;;;;;;;;14.19;79.83;100730.84;5007995;28;19913;-74
2022/10/14 11:29:34;;;;;;;;;;;;;;;14.17;83.20;100727.44;5009309;28;20008;-74
2022/10/14 11:31:59;;;;;;;;;;;;;;;14.15;83.51;100725.78;5005735;28;19936;-74
2022/10/14 11:34:26;;;;;;;;;;;;;;;14.21;82.55;100722.94;5008833;28;19997;-74
2022/10/14 11:37:14;;;;;;;;;;;;;;;14.16;83.22;100717.91;5008463;28;19918;-74
2022/10/14 11:39:47;;;;;;;;;;;;;;;14.15;83.46;100723.16;5008279;28;19928;-74
2022/10/14 11:42:12;;;;;;;;;;;;;;;14.21;83.21;100721.19;5008135;28;19918;-74
2022/10/14 11:44:40;;;;;;;;;;;;;;;14.15;83.75;100707.50;5010491;28;20000;-74
2022/10/14 11:47:14;;;;;;;;;;;;;;;14.20;83.81;100713.41;5009817;28;19971;-74
2022/10/14 11:50:00;;;;;;;;;;;;;;;14.19;81.02;100707.34;5013405;28;19924;-74
2022/10/14 11:52:32;;;;;;;;;;;;;;;14.25;83.48;100696.66;5010469;28;19929;-74
2022/10/14 11:55:24;;;;;;;;;;;;;;;14.22;84.03;100693.31;5012843;28;19932;-74
2022/10/14 11:58:02;;;;;;;;;;;;;;;14.13;84.10;100684.06;4987031;28;20511;-74
2022/10/14 12:00:29;;;;;;;;;;;;;;;14.17;84.10;100680.44;5005797;28;19949;-74
2022/10/14 12:03:01;;;;;;;;;;;;;;;14.20;84.12;100682.06;5009131;28;19949;-74
2022/10/14 12:05:43;;;;;;;;;;;;;;;14.22;83.96;100677.63;5006910;28;19917;-74
2022/10/14 12:08:18;;;;;;;;;;;;;;;14.31;82.67;100683.38;5013557;28;21547;-74
2022/10/14 12:10:50;;;;;;;;;;;;;;;14.25;84.35;100683.59;5011852;28;19924;-74
2022/10/14 12:13:18;;;;;;;;;;;;;;;14.27;83.98;100684.38;5016873;28;19929;-74
2022/10/14 12:15:47;;;;;;;;;;;;;;;14.24;84.42;100683.63;5013064;28;19925;-74
2022/10/14 12:18:12;;;;;;;;;;;;;;;14.22;84.37;100688.06;5017411;28;20032;-74
2022/10/14 12:20:37;;;;;;;;;;;;;;;14.22;84.49;100688.94;5023923;28;20003;-74
2022/10/14 12:23:05;;;;;;;;;;;;;;;14.24;83.79;100679.28;4992371;28;20269;-74
2022/10/14 12:25:39;;;;;;;;;;;;;;;14.25;84.08;100680.97;4992223;28;19932;-74
2022/10/14 12:28:04;;;;;;;;;;;;;;;14.25;83.20;100674.91;5012670;28;19960;-74
2022/10/14 12:30:33;;;;;;;;;;;;;;;14.24;83.80;100679.28;5013069;28;19967;-74
2022/10/14 12:33:01;;;;;;;;;;;;;;;14.21;84.34;100676.78;4997559;28;19961;-74
2022/10/14 12:35:45;;;;;;;;;;;;;;;14.19;84.22;100676.00;5013569;28;20447;-74
2022/10/14 12:38:11;;;;;;;;;;;;;;;14.22;84.37;100667.19;5011755;28;19917;-74
2022/10/14 12:40:36;;;;;;;;;;;;;;;14.18;84.45;100655.13;5011215;28;19925;-74
2022/10/14 12:43:13;;;;;;;;;;;;;;;14.15;84.82;100652.63;5011374;28;19921;-74
2022/10/14 12:45:46;;;;;;;;;;;;;;;14.17;85.09;100649.06;5015042;28;20005;-74
2022/10/14 12:48:14;;;;;;;;;;;;;;;14.19;84.91;100647.25;5011490;28;19920;-74
2022/10/14 12:50:41;;;;;;;;;;;;;;;14.20;84.69;100635.03;5012713;28;19963;-74